Terminal Aerodrome Forecast
Issued by NWS Jackson, KY

Home | Current Version | Previous Version | Text Only | Print | Product List | Glossary On
Versions: 1 2 3 4 5 6 7 8 9 10 11 12 13 14 15
000
FTUS43 KJKL 022334
TAFLOZ
TAF
KLOZ 022334Z 0300/0324 VRB03KT P6SM SCT250
     FM030900 VRB03KT P6SM OVC050
     FM031200 20007KT 5SM -DZ OVC005
     FM031800 20007KT P6SM OVC010=

USA.gov is the U.S. government's official web portal to all federal, state and local government web resources and services.